Sunday, January 20, 2019, 1:56 AM EST
Back to Local

KEWR, Newark International Airport

Location: Elizabeth, NJ, United States Lat: 40.683
Local Time: 1:56 AM EST ( 6:56 GMT) Lon: -74.167
Time Zone: US/Eastern Elev: 16 ft

Show me the last for .
Show Coded

Time T Td Feel RH Dir Speed Gust Alt SLP Vis Weather Sky Remarks
2019-01-20 00:51 35 34 30 95 30° 6 - 29.76 29.76 4 +RA BR OVC007 1-hr Precip Total: 0.28"
6-hr Precip Total (1am): 0.70"
6-hr Min Temp (1am): 35.1°F
6-hr Max Temp (1am): 37.9°F
2019-01-19 23:51 36 34 30 92 50° 7 - 29.84 29.83 4 +RA BR BKN007 OVC012 1-hr Precip Total: 0.17"
24-hr Min Temp (12am): 28.0°F
24-hr Max Temp (12am): 37.9°F
2019-01-19 22:51 36 34 28 92 70° 12 - 29.88 29.87 5 RA BR BKN007 OVC012 1-hr Precip Total: 0.10"
2019-01-19 22:43 36 34 27 92 60° 14 - 29.88 - 5 RA BR BKN007 OVC011 1-hr Precip Total: 0.08"
2019-01-19 21:59 36 34 26 92 80° 13 18 29.91 - 5 -RAPL BR BKN009 OVC013 1-hr Precip Total: 0.01"
2019-01-19 21:51 36 34 26 92 80° 12 18 29.92 29.91 4 RA BR BKN010 OVC013 1-hr Precip Total: 0.09"
6-hr Precip Total (10pm): 0.15"
2019-01-19 20:51 38 35 27 89 70° 8 22 29.98 29.97 5 -RA BR OVC013 Pressure falling rapidly
1-hr Precip Total: 0.05"
2019-01-19 20:38 37 34 32 88 80° 7 - 29.99 - 4 -RA BR OVC014 1-hr Precip Total: 0.04"
2019-01-19 19:51 37 32 32 81 Variable 6 - 30.02 30.01 6 -RA SCT017 OVC020 1-hr Precip Total: 0.01"
2019-01-19 18:51 37 30 31 75 80° 8 - 30.06 30.06 10 -RA FEW017 OVC020 1-hr Precip Total: Trace
6-hr Precip Total (7pm): 0.00"
6-hr Min Temp (7pm): 36.0°F
6-hr Max Temp (7pm): 37.0°F
2019-01-19 17:51 37 28 32 69 70° 7 - 30.09 30.08 10 BKN024 OVC033 None
2019-01-19 16:51 37 27 32 66 80° 7 - 30.11 30.11 10 BKN022 OVC038 None
2019-01-19 15:51 37 26 30 64 90° 9 - 30.15 30.14 10 BKN025 OVC050 None
2019-01-19 15:14 36 25 30 63 90° 7 - 30.16 - 10 BKN025 OVC050 None
2019-01-19 14:51 36 24 29 61 100° 9 - 30.16 30.16 10 BKN030 OVC050 None
2019-01-19 13:51 36 23 31 58 130° 6 - 30.18 30.18 10 BKN030 OVC047 None
2019-01-19 12:51 36 23 30 58 110° 8 - 30.20 30.19 10 SCT030 OVC047 6-hr Min Temp (1pm): 28.0°F
6-hr Max Temp (1pm): 37.0°F
2019-01-19 11:51 36 22 - 56 - Calm - 30.24 30.24 10 FEW030 OVC047 None
2019-01-19 10:51 35 22 32 58 10° 3 - 30.27 30.27 10 OVC048 None
2019-01-19 09:51 34 22 28 60 20° 7 - 30.27 30.27 10 BKN050 OVC170 None
2019-01-19 08:51 34 22 28 60 30° 7 - 30.26 30.26 10 FEW046 BKN170 BKN200 OVC250 None
2019-01-19 07:51 31 21 24 66 30° 7 - 30.24 30.24 10 SCT160 SCT200 BKN250 None
2019-01-19 06:51 31 19 23 60 360° 9 - 30.21 30.21 10 FEW045 BKN250 6-hr Min Temp (7am): 28.9°F
6-hr Max Temp (7am): 33.1°F
2019-01-19 05:51 31 19 23 60 340° 8 - 30.23 30.22 10 FEW045 SCT250 None
2019-01-19 04:51 31 20 24 63 340° 7 - 30.21 30.21 10 FEW045 SCT250 None
2019-01-19 03:51 31 23 27 72 300° 3 - 30.21 30.21 10 FEW045 BKN250 None
2019-01-19 02:51 31 25 24 78 270° 7 - 30.23 30.22 10 FEW042 BKN250 None

Support USWX by starting your Amazon purchase here.